createdAt,value
2022-11-28T00:00:02.492Z,10.80
2022-11-28T00:03:04.548Z,13.27
2022-11-28T00:05:54.788Z,12.97
2022-11-28T00:08:43.387Z,11.87
2022-11-28T00:11:35.315Z,12.40
2022-11-28T00:14:27.677Z,12.23
2022-11-28T00:17:16.224Z,15.33
2022-11-28T00:20:13.379Z,11.77
2022-11-28T00:23:03.287Z,12.07
2022-11-28T00:26:06.759Z,12.80
2022-11-28T00:28:56.580Z,10.90
2022-11-28T00:31:45.181Z,10.93
2022-11-28T00:34:33.854Z,14.43
2022-11-28T00:37:26.363Z,10.93
2022-11-28T00:40:19.175Z,11.63
2022-11-28T00:43:11.688Z,9.70
2022-11-28T00:46:03.334Z,11.40
2022-11-28T00:48:54.699Z,9.20
2022-11-28T00:51:57.087Z,10.90
2022-11-28T00:54:45.614Z,10.03
2022-11-28T00:57:46.356Z,9.80
2022-11-28T01:00:38.890Z,12.13
2022-11-28T01:03:32.986Z,11.00
2022-11-28T01:06:29.213Z,11.50
2022-11-28T01:09:29.683Z,9.20
2022-11-28T01:12:19.678Z,10.93
2022-11-28T01:15:17.363Z,9.77
2022-11-28T01:18:08.978Z,10.67
2022-11-28T01:21:04.016Z,9.40
2022-11-28T01:23:52.738Z,12.90
2022-11-28T01:26:52.594Z,11.47
2022-11-28T01:29:44.720Z,9.97
2022-11-28T01:32:34.639Z,11.17
2022-11-28T01:35:27.585Z,10.47
2022-11-28T01:38:27.908Z,8.93
2022-11-28T01:41:19.357Z,10.10
2022-11-28T01:44:13.251Z,9.50
2022-11-28T01:47:07.227Z,13.27
2022-11-28T01:50:03.174Z,9.60
2022-11-28T01:52:55.135Z,12.10
2022-11-28T01:55:45.403Z,9.90
2022-11-28T01:58:40.673Z,9.53
2022-11-28T02:01:32.566Z,8.30
2022-11-28T02:04:24.402Z,8.47
2022-11-28T02:07:22.950Z,10.90
2022-11-28T02:10:14.680Z,9.03
2022-11-28T02:13:12.387Z,6.93
2022-11-28T02:16:13.756Z,8.53
2022-11-28T02:19:07.763Z,9.93
2022-11-28T02:22:01.402Z,8.93
2022-11-28T02:25:12.441Z,9.00
2022-11-28T02:28:20.600Z,11.13
2022-11-28T02:31:17.996Z,10.10
2022-11-28T02:34:13.494Z,9.13
2022-11-28T02:37:05.111Z,11.40
2022-11-28T02:40:04.972Z,9.67
2022-11-28T02:43:08.052Z,12.50
2022-11-28T02:46:07.094Z,9.47
2022-11-28T02:48:58.960Z,8.53
2022-11-28T02:51:50.872Z,8.70
2022-11-28T02:54:42.693Z,10.47
2022-11-28T02:57:36.253Z,9.00
2022-11-28T03:00:29.276Z,10.40
2022-11-28T03:03:24.644Z,9.40
2022-11-28T03:06:18.312Z,12.17
2022-11-28T03:09:16.515Z,9.20
2022-11-28T03:12:12.226Z,8.20
2022-11-28T03:15:04.458Z,8.30
2022-11-28T03:17:56.428Z,11.93
2022-11-28T03:20:47.816Z,10.73
2022-11-28T03:23:39.887Z,8.70
2022-11-28T03:26:40.771Z,9.00
2022-11-28T03:29:37.014Z,7.73
2022-11-28T03:32:30.118Z,8.77
2022-11-28T03:35:30.307Z,9.50
2022-11-28T03:38:27.714Z,9.53
2022-11-28T03:41:20.447Z,8.87
2022-11-28T03:44:12.605Z,8.43
2022-11-28T03:47:05.003Z,10.00
2022-11-28T03:50:03.237Z,9.73
2022-11-28T03:53:02.077Z,9.43
2022-11-28T03:55:56.376Z,11.00
2022-11-28T03:58:50.883Z,8.50
2022-11-28T04:01:47.962Z,8.23
2022-11-28T04:04:38.926Z,8.43
2022-11-28T04:07:43.560Z,9.00
2022-11-28T04:10:35.240Z,8.83
2022-11-28T04:13:27.877Z,12.00
2022-11-28T04:16:20.190Z,8.57
2022-11-28T04:19:13.520Z,8.70
2022-11-28T04:22:04.117Z,9.40
2022-11-28T04:25:00.425Z,9.70
2022-11-28T04:27:54.620Z,9.60
2022-11-28T04:30:44.309Z,11.70
2022-11-28T04:33:34.997Z,10.20
2022-11-28T04:36:34.800Z,9.93
2022-11-28T04:39:26.454Z,8.43
2022-11-28T04:42:16.854Z,9.83
2022-11-28T04:45:10.830Z,8.23
2022-11-28T04:47:59.600Z,9.23
2022-11-28T04:50:55.580Z,9.63
2022-11-28T04:53:49.632Z,11.17
2022-11-28T04:56:42.692Z,7.83
2022-11-28T04:59:39.111Z,9.00
2022-11-28T05:02:31.234Z,10.20
2022-11-28T05:05:20.985Z,8.93
2022-11-28T05:08:12.761Z,9.07
2022-11-28T05:11:09.935Z,8.90
2022-11-28T05:13:59.718Z,8.47
2022-11-28T05:16:49.328Z,10.43
2022-11-28T05:19:37.963Z,9.17
2022-11-28T05:22:33.165Z,8.00
2022-11-28T05:25:23.967Z,9.60
2022-11-28T05:28:20.897Z,8.73
2022-11-28T05:31:10.637Z,8.20
2022-11-28T05:33:59.232Z,9.23
2022-11-28T05:36:51.926Z,9.37
2022-11-28T05:39:45.437Z,8.40
2022-11-28T05:42:41.608Z,8.73
2022-11-28T05:45:34.619Z,10.13
2022-11-28T05:48:26.514Z,11.50
2022-11-28T05:51:18.273Z,8.93
2022-11-28T05:54:07.383Z,9.80
2022-11-28T05:56:59.431Z,11.40
2022-11-28T05:59:50.031Z,9.20
2022-11-28T06:02:39.990Z,8.93
2022-11-28T06:05:42.589Z,10.40
2022-11-28T06:08:31.956Z,10.73
2022-11-28T06:11:24.040Z,9.97
2022-11-28T06:14:23.568Z,9.90
2022-11-28T06:17:13.403Z,9.97
2022-11-28T06:20:08.766Z,11.50
2022-11-28T06:23:01.577Z,10.23
2022-11-28T06:25:50.163Z,10.33
2022-11-28T06:28:41.501Z,12.10
2022-11-28T06:31:34.541Z,10.90
2022-11-28T06:34:23.185Z,11.37
2022-11-28T06:37:15.349Z,10.80
2022-11-28T06:40:03.903Z,12.20
2022-11-28T06:42:52.484Z,9.70
2022-11-28T06:45:41.191Z,9.23
2022-11-28T06:48:30.110Z,11.90
2022-11-28T06:51:18.973Z,11.27
2022-11-28T06:54:09.324Z,9.80
2022-11-28T06:56:57.997Z,10.23
2022-11-28T06:59:46.627Z,9.80
2022-11-28T07:02:35.330Z,8.80
2022-11-28T07:05:29.469Z,9.80
2022-11-28T07:08:18.138Z,11.50
2022-11-28T07:11:12.505Z,10.50
2022-11-28T07:14:03.112Z,13.03
2022-11-28T07:16:54.404Z,11.17
2022-11-28T07:19:43.533Z,9.60
2022-11-28T07:22:33.432Z,10.00
2022-11-28T07:25:23.661Z,10.03
2022-11-28T07:28:18.485Z,11.43
2022-11-28T07:31:11.817Z,13.67
2022-11-28T07:34:01.710Z,10.67
2022-11-28T07:36:52.259Z,11.67
2022-11-28T07:39:42.595Z,12.07
2022-11-28T07:42:31.437Z,11.57
2022-11-28T07:45:22.870Z,14.30
2022-11-28T07:48:11.754Z,12.40
2022-11-28T07:51:02.991Z,12.87
2022-11-28T07:53:51.847Z,12.13
2022-11-28T07:57:10.792Z,12.03
2022-11-28T07:59:52.884Z,13.43
2022-11-28T08:02:42.830Z,11.57
2022-11-28T08:05:31.488Z,14.83
2022-11-28T08:08:21.118Z,10.50
2022-11-28T08:11:10.549Z,12.33
2022-11-28T08:13:59.620Z,12.27
2022-11-28T08:16:49.513Z,12.50
2022-11-28T08:19:39.556Z,14.67
2022-11-28T08:22:28.236Z,13.27
2022-11-28T08:25:16.790Z,12.23
2022-11-28T08:28:05.536Z,11.97
2022-11-28T08:30:54.197Z,12.90
2022-11-28T08:33:43.180Z,13.80
2022-11-28T08:36:33.439Z,13.07
2022-11-28T08:39:25.419Z,13.90
2022-11-28T08:42:14.220Z,13.00
2022-11-28T08:45:02.822Z,16.30
2022-11-28T08:47:53.952Z,14.00
2022-11-28T08:50:48.219Z,12.30
2022-11-28T08:53:38.280Z,14.43
2022-11-28T08:56:35.211Z,14.53
2022-11-28T08:59:25.426Z,13.80
2022-11-28T09:02:14.191Z,13.80
2022-11-28T09:05:02.904Z,12.50
2022-11-28T09:07:52.788Z,12.23
2022-11-28T09:10:43.793Z,15.70
2022-11-28T09:13:32.503Z,14.07
2022-11-28T09:16:21.273Z,12.93
2022-11-28T09:19:10.730Z,14.70
2022-11-28T09:21:59.344Z,14.03
2022-11-28T09:24:47.967Z,13.97
2022-11-28T09:27:38.183Z,13.60
2022-11-28T09:30:26.892Z,14.27
2022-11-28T09:33:15.503Z,12.57
2022-11-28T09:36:06.795Z,15.57
2022-11-28T09:38:55.411Z,13.90
2022-11-28T09:41:55.009Z,16.20
2022-11-28T09:44:47.270Z,12.63
2022-11-28T09:47:38.164Z,12.03
2022-11-28T09:50:28.181Z,11.83
2022-11-28T09:53:26.001Z,13.03
2022-11-28T09:56:21.296Z,13.30
2022-11-28T09:59:14.811Z,12.50
2022-11-28T10:02:12.109Z,13.13
2022-11-28T10:05:07.453Z,11.63
2022-11-28T10:08:04.080Z,13.67
2022-11-28T10:10:57.937Z,14.10
2022-11-28T10:14:07.778Z,14.33
2022-11-28T10:17:01.659Z,14.53
2022-11-28T10:19:57.368Z,13.40
2022-11-28T10:22:49.413Z,13.80
2022-11-28T10:25:41.391Z,11.80
2022-11-28T10:28:31.915Z,13.20
2022-11-28T10:31:21.918Z,14.50
2022-11-28T10:34:16.605Z,11.07
2022-11-28T10:37:08.752Z,11.57
2022-11-28T10:39:57.828Z,13.37
2022-11-28T10:42:50.769Z,13.00
2022-11-28T10:45:47.122Z,12.33
2022-11-28T10:48:40.657Z,13.40
2022-11-28T10:51:35.403Z,14.73
2022-11-28T10:54:33.256Z,14.07
2022-11-28T10:57:24.147Z,11.97
2022-11-28T11:00:13.848Z,14.80
2022-11-28T11:03:03.571Z,16.13
2022-11-28T11:05:52.223Z,16.87
2022-11-28T11:08:43.512Z,14.43
2022-11-28T11:11:36.012Z,13.10
2022-11-28T11:14:34.404Z,13.33
2022-11-28T11:17:29.015Z,18.17
2022-11-28T11:20:29.550Z,12.53
2022-11-28T11:23:18.939Z,11.93
2022-11-28T11:26:10.154Z,13.27
2022-11-28T11:29:00.157Z,12.63
2022-11-28T11:31:53.785Z,11.80
2022-11-28T11:34:45.825Z,11.77
2022-11-28T11:37:38.254Z,13.57
2022-11-28T11:40:28.106Z,14.67
2022-11-28T11:43:27.566Z,12.80
2022-11-28T11:46:18.347Z,12.67
2022-11-28T11:49:06.948Z,12.80
2022-11-28T11:51:57.799Z,12.10
2022-11-28T11:54:59.363Z,12.33
2022-11-28T11:57:51.202Z,11.87
2022-11-28T12:00:40.892Z,13.17
2022-11-28T12:03:34.940Z,13.70
2022-11-28T12:06:26.811Z,12.80
2022-11-28T12:09:22.302Z,14.53
2022-11-28T12:12:14.795Z,14.83
2022-11-28T12:15:03.466Z,14.67
2022-11-28T12:17:59.821Z,16.07
2022-11-28T12:21:06.432Z,14.17
2022-11-28T12:24:07.269Z,14.03
2022-11-28T12:27:01.059Z,12.07
2022-11-28T12:30:03.893Z,13.73
2022-11-28T12:32:56.292Z,16.60
2022-11-28T12:35:45.981Z,15.60
2022-11-28T12:38:40.158Z,14.43
2022-11-28T12:41:44.656Z,13.50
2022-11-28T12:44:43.175Z,17.00
2022-11-28T12:47:36.218Z,14.93
2022-11-28T12:50:30.633Z,12.60
2022-11-28T12:53:29.888Z,12.40
2022-11-28T12:56:28.275Z,11.83
2022-11-28T12:59:22.955Z,14.67
2022-11-28T13:02:23.804Z,12.50
2022-11-28T13:05:18.816Z,17.57
2022-11-28T13:08:18.885Z,14.33
2022-11-28T13:11:15.613Z,12.80
2022-11-28T13:14:07.025Z,15.10
2022-11-28T13:16:57.799Z,12.87
2022-11-28T13:19:48.611Z,12.60
2022-11-28T13:22:43.872Z,13.00
2022-11-28T13:25:37.048Z,17.60
2022-11-28T13:28:29.782Z,14.27
2022-11-28T13:31:22.034Z,13.57
2022-11-28T13:34:14.796Z,13.13
2022-11-28T13:40:18.832Z,14.07
2022-11-28T13:43:14.507Z,11.80
2022-11-28T13:46:03.494Z,13.60
2022-11-28T13:49:14.219Z,12.80
2022-11-28T13:52:22.949Z,11.60
2022-11-28T13:55:26.619Z,11.03
2022-11-28T13:58:22.243Z,11.73
2022-11-28T14:01:12.102Z,12.90
2022-11-28T14:04:08.487Z,13.57
2022-11-28T14:07:02.514Z,11.83
2022-11-28T14:09:55.903Z,16.93
2022-11-28T14:12:51.957Z,13.97
2022-11-28T14:15:46.661Z,13.90
2022-11-28T14:18:56.440Z,12.87
2022-11-28T14:21:50.872Z,13.53
2022-11-28T14:24:53.425Z,13.20
2022-11-28T14:27:48.613Z,13.67
2022-11-28T14:30:38.646Z,14.20
2022-11-28T14:33:33.946Z,13.77
2022-11-28T14:36:28.485Z,12.43
2022-11-28T14:39:35.975Z,13.43
2022-11-28T14:42:59.729Z,13.40
2022-11-28T14:45:46.002Z,13.30
2022-11-28T14:48:36.869Z,13.60
2022-11-28T14:52:15.988Z,13.60
2022-11-28T14:55:06.799Z,13.77
2022-11-28T14:57:58.858Z,13.47
2022-11-28T15:00:50.882Z,13.60
2022-11-28T15:03:44.301Z,15.67
2022-11-28T15:06:34.750Z,16.77
2022-11-28T15:09:28.643Z,13.10
2022-11-28T15:12:21.092Z,14.23
2022-11-28T15:15:13.995Z,17.90
2022-11-28T15:18:02.981Z,16.30
2022-11-28T15:20:55.487Z,13.40
2022-11-28T15:23:44.595Z,16.90
2022-11-28T15:26:33.323Z,16.13
2022-11-28T15:29:23.176Z,14.80
2022-11-28T15:32:18.047Z,13.90
2022-11-28T15:35:12.610Z,13.77
2022-11-28T15:38:02.872Z,14.20
2022-11-28T15:40:52.553Z,16.30
2022-11-28T15:43:44.263Z,18.30
2022-11-28T15:46:34.080Z,14.90
2022-11-28T15:49:30.398Z,15.50
2022-11-28T15:52:19.203Z,12.50
2022-11-28T15:55:17.830Z,16.90
2022-11-28T15:58:19.754Z,15.63
2022-11-28T16:01:12.316Z,16.87
2022-11-28T16:04:03.537Z,14.70
2022-11-28T16:06:52.928Z,13.77
2022-11-28T16:09:50.390Z,17.00
2022-11-28T16:12:44.163Z,17.03
2022-11-28T16:15:36.158Z,17.20
2022-11-28T16:18:25.891Z,18.90
2022-11-28T16:21:15.427Z,17.50
2022-11-28T16:24:04.342Z,17.10
2022-11-28T16:26:58.567Z,20.07
2022-11-28T16:29:48.615Z,15.53
2022-11-28T16:32:38.940Z,18.70
2022-11-28T16:35:28.532Z,19.47
2022-11-28T16:38:19.761Z,15.77
2022-11-28T16:41:08.371Z,16.93
2022-11-28T16:44:00.530Z,16.37
2022-11-28T16:46:53.271Z,22.27
2022-11-28T16:49:43.991Z,17.83
2022-11-28T16:52:50.688Z,17.97
2022-11-28T16:55:40.029Z,18.27
2022-11-28T16:58:28.643Z,17.70
2022-11-28T17:01:21.522Z,17.57
2022-11-28T17:04:20.431Z,15.37
2022-11-28T17:07:13.756Z,17.90
2022-11-28T17:10:02.507Z,18.17
2022-11-28T17:12:51.120Z,18.23
2022-11-28T17:15:39.719Z,19.13
2022-11-28T17:18:28.299Z,17.23
2022-11-28T17:21:18.945Z,16.27
2022-11-28T17:24:08.555Z,19.40
2022-11-28T17:26:57.165Z,18.13
2022-11-28T17:29:45.963Z,17.00
2022-11-28T17:32:34.773Z,18.17
2022-11-28T17:35:24.310Z,18.90
2022-11-28T17:38:14.301Z,21.87
2022-11-28T17:41:02.869Z,16.67
2022-11-28T17:43:51.467Z,17.97
2022-11-28T17:46:40.018Z,20.63
2022-11-28T17:49:28.658Z,20.50
2022-11-28T17:52:17.554Z,20.70
2022-11-28T17:55:07.847Z,18.93
2022-11-28T17:57:56.448Z,17.80
2022-11-28T18:00:45.129Z,20.83
2022-11-28T18:03:33.705Z,16.93
2022-11-28T18:06:23.187Z,19.70
2022-11-28T18:09:12.750Z,18.77
2022-11-28T18:12:02.711Z,18.70
2022-11-28T18:14:51.294Z,20.03
2022-11-28T18:17:39.891Z,18.10
2022-11-28T18:20:28.465Z,19.50
2022-11-28T18:23:17.024Z,20.30
2022-11-28T18:26:07.367Z,19.40
2022-11-28T18:28:57.353Z,17.70
2022-11-28T18:31:48.956Z,19.67
2022-11-28T18:34:37.563Z,18.07
2022-11-28T18:37:26.167Z,19.20
2022-11-28T18:40:15.119Z,18.43
2022-11-28T18:43:04.030Z,21.17
2022-11-28T18:45:54.014Z,19.03
2022-11-28T18:48:43.820Z,18.00
2022-11-28T18:51:33.532Z,19.67
2022-11-28T18:54:22.079Z,18.20
2022-11-28T18:57:10.694Z,17.40
2022-11-28T18:59:59.734Z,19.27
2022-11-28T19:02:52.011Z,19.23
2022-11-28T19:05:43.016Z,19.97
2022-11-28T19:08:31.611Z,17.93
2022-11-28T19:11:20.211Z,18.50
2022-11-28T19:14:09.362Z,19.40
2022-11-28T19:16:58.098Z,18.63
2022-11-28T19:19:48.706Z,16.87
2022-11-28T19:22:37.389Z,21.90
2022-11-28T19:25:29.995Z,18.90
2022-11-28T19:28:18.592Z,20.13
2022-11-28T19:31:07.988Z,17.33
2022-11-28T19:34:01.200Z,19.43
2022-11-28T19:36:58.432Z,16.37
2022-11-28T19:39:49.350Z,18.70
2022-11-28T19:42:39.610Z,20.43
2022-11-28T19:45:28.259Z,18.60
2022-11-28T19:48:21.066Z,19.03
2022-11-28T19:51:15.794Z,19.63
2022-11-28T19:54:08.860Z,17.53
2022-11-28T19:56:58.710Z,17.77
2022-11-28T19:59:47.333Z,22.73
2022-11-28T20:02:39.055Z,20.67
2022-11-28T20:05:31.988Z,20.57
2022-11-28T20:08:21.666Z,20.97
2022-11-28T20:11:16.916Z,19.80
2022-11-28T20:14:09.314Z,17.37
2022-11-28T20:17:00.833Z,18.90
2022-11-28T20:19:50.579Z,19.73
2022-11-28T20:22:42.363Z,18.50
2022-11-28T20:25:37.836Z,20.00
2022-11-28T20:28:42.501Z,18.23
2022-11-28T20:31:33.752Z,21.37
2022-11-28T20:34:24.370Z,21.93
2022-11-28T20:37:19.307Z,18.83
2022-11-28T20:40:11.056Z,19.03
2022-11-28T20:43:01.353Z,19.10
2022-11-28T20:45:55.562Z,19.30
2022-11-28T20:48:44.351Z,18.00
2022-11-28T20:51:38.266Z,18.13
2022-11-28T20:54:26.906Z,18.40
2022-11-28T20:57:21.691Z,20.37
2022-11-28T21:00:26.224Z,19.53
2022-11-28T21:03:16.654Z,19.50
2022-11-28T21:06:06.508Z,19.80
2022-11-28T21:08:58.147Z,20.80
2022-11-28T21:11:58.907Z,21.67
2022-11-28T21:14:47.864Z,21.17
2022-11-28T21:17:41.358Z,21.37
2022-11-28T21:20:38.124Z,18.93
2022-11-28T21:23:26.682Z,19.67
2022-11-28T21:26:16.765Z,19.17
2022-11-28T21:29:07.024Z,20.27
2022-11-28T21:31:57.856Z,22.00
2022-11-28T21:34:49.559Z,20.87
2022-11-28T21:37:41.327Z,21.00
2022-11-28T21:40:33.997Z,22.43
2022-11-28T21:43:23.531Z,19.07
2022-11-28T21:46:12.237Z,20.63
2022-11-28T21:49:02.074Z,19.63
2022-11-28T21:51:56.322Z,20.03
2022-11-28T21:54:50.741Z,22.03
2022-11-28T21:57:41.975Z,20.47
2022-11-28T22:00:52.032Z,20.60
2022-11-28T22:03:45.036Z,19.40
2022-11-28T22:06:34.242Z,21.40
2022-11-28T22:09:22.818Z,20.60
2022-11-28T22:12:14.601Z,19.80
2022-11-28T22:15:05.661Z,22.97
2022-11-28T22:17:54.259Z,20.73
2022-11-28T22:20:45.745Z,17.27
2022-11-28T22:23:39.722Z,19.97
2022-11-28T22:26:28.319Z,21.97
2022-11-28T22:29:30.077Z,20.20
2022-11-28T22:32:20.369Z,22.90
2022-11-28T22:35:13.237Z,19.23
2022-11-28T22:38:08.531Z,20.10
2022-11-28T22:40:59.708Z,21.37
2022-11-28T22:43:54.223Z,22.37
2022-11-28T22:46:44.170Z,19.77
2022-11-28T22:49:35.758Z,20.33
2022-11-28T22:52:27.481Z,20.13
2022-11-28T22:55:17.263Z,21.27
2022-11-28T22:58:13.584Z,20.70
2022-11-28T23:01:06.490Z,19.47
2022-11-28T23:04:01.138Z,21.50
2022-11-28T23:06:51.824Z,18.53
2022-11-28T23:09:41.580Z,20.30
2022-11-28T23:12:30.158Z,19.67
2022-11-28T23:15:21.287Z,20.80
2022-11-28T23:18:10.997Z,22.90
2022-11-28T23:21:10.166Z,20.60
2022-11-28T23:24:01.198Z,21.77
2022-11-28T23:26:51.744Z,22.90
2022-11-28T23:29:43.040Z,25.47
2022-11-28T23:32:34.345Z,21.17
2022-11-28T23:35:24.938Z,22.53
2022-11-28T23:38:25.185Z,23.67
2022-11-28T23:41:18.820Z,23.07
2022-11-28T23:44:09.170Z,23.20
2022-11-28T23:46:59.710Z,22.63
2022-11-28T23:49:50.166Z,23.63
2022-11-28T23:52:41.324Z,23.40
2022-11-28T23:55:39.892Z,24.17
2022-11-28T23:58:28.492Z,23.10
